Time;durP1;ratioP1;P1;durP2;ratioP2;P2;SDS_P1;SDS_P2;PMS_P1;PMS_P2;Temp;Humidity;BMP_temperature;BMP_pressure;BME280_temperature;BME280_humidity;BME280_pressure;Samples;Min_cycle;Max_cycle;Signal;HPM_P1;HPM_P2
2023/07/26 00:01:58;;;;;;;5.30;4.77;;;13.80;99.90;;;;;;8200251;28;20243;-64
2023/07/26 00:06:01;;;;;;;8.33;5.37;;;13.80;99.90;;;;;;8199240;28;20221;-64
2023/07/26 00:10:02;;;;;;;7.73;5.47;;;13.80;99.90;;;;;;8220443;28;20216;-65
2023/07/26 00:14:04;;;;;;;6.23;4.93;;;13.80;99.90;;;;;;8203351;28;20199;-63
2023/07/26 00:18:05;;;;;;;6.73;5.97;;;13.80;99.90;;;;;;8200212;28;20197;-64
2023/07/26 00:22:06;;;;;;;7.80;6.20;;;13.80;99.90;;;;;;8203400;28;20188;-66
2023/07/26 00:26:07;;;;;;;8.43;6.30;;;13.90;99.90;;;;;;8202956;28;20219;-64
2023/07/26 00:30:09;;;;;;;8.63;6.03;;;13.90;99.90;;;;;;8202131;28;20289;-64
2023/07/26 00:34:10;;;;;;;8.53;6.67;;;13.90;99.90;;;;;;8196384;28;20208;-65
2023/07/26 00:38:11;;;;;;;7.70;7.00;;;13.90;99.90;;;;;;8204204;28;20199;-65
2023/07/26 00:42:17;;;;;;;9.33;6.93;;;13.90;99.90;;;;;;8201184;28;20211;-64
2023/07/26 00:46:18;;;;;;;8.43;7.17;;;13.80;99.90;;;;;;8200570;28;20223;-65
2023/07/26 00:50:19;;;;;;;10.73;7.60;;;13.80;99.90;;;;;;8201107;28;20200;-65
2023/07/26 00:54:21;;;;;;;9.43;7.33;;;13.80;99.90;;;;;;8202083;28;20200;-64
2023/07/26 00:58:22;;;;;;;9.97;7.37;;;13.70;99.90;;;;;;8213683;28;20273;-67
2023/07/26 01:02:24;;;;;;;10.83;7.03;;;13.70;99.90;;;;;;8199401;28;20188;-66
2023/07/26 01:06:52;;;;;;;10.97;7.27;;;13.60;99.90;;;;;;8197992;28;20216;-65
2023/07/26 01:11:03;;;;;;;8.67;6.93;;;13.60;99.90;;;;;;8200029;28;20205;-65
2023/07/26 01:15:08;;;;;;;8.93;6.80;;;13.60;99.90;;;;;;8204014;28;20194;-64
2023/07/26 01:19:09;;;;;;;7.43;6.57;;;13.60;99.90;;;;;;8201367;28;20202;-66
2023/07/26 01:23:10;;;;;;;7.53;5.83;;;13.60;99.90;;;;;;8198998;28;20203;-64
2023/07/26 01:27:11;;;;;;;7.20;6.37;;;13.60;99.90;;;;;;8197891;28;20220;-64
2023/07/26 01:31:17;;;;;;;7.47;6.77;;;13.50;99.90;;;;;;8201796;28;20303;-65
2023/07/26 01:35:20;;;;;;;8.20;5.97;;;13.50;99.90;;;;;;8215026;28;20271;-65
2023/07/26 01:39:21;;;;;;;8.40;6.87;;;13.50;99.90;;;;;;8216338;28;20194;-63
2023/07/26 01:43:22;;;;;;;9.93;6.60;;;13.40;99.90;;;;;;8201815;28;20253;-64
2023/07/26 01:47:23;;;;;;;7.20;6.50;;;13.40;99.90;;;;;;8198428;28;20215;-64
2023/07/26 01:51:25;;;;;;;8.27;6.27;;;13.40;99.90;;;;;;8196790;28;20197;-64
2023/07/26 01:55:26;;;;;;;9.03;6.90;;;13.40;99.90;;;;;;8197484;28;20199;-62
2023/07/26 01:59:27;;;;;;;12.37;7.00;;;13.40;99.90;;;;;;8198928;28;20201;-64
2023/07/26 02:03:31;;;;;;;9.90;7.17;;;13.30;99.90;;;;;;8196597;28;20278;-65
2023/07/26 02:07:32;;;;;;;10.57;6.63;;;13.30;99.90;;;;;;8197123;28;20293;-66
2023/07/26 02:11:36;;;;;;;8.83;6.70;;;13.30;99.90;;;;;;8201945;28;20187;-66
2023/07/26 02:15:38;;;;;;;10.10;6.83;;;13.30;99.90;;;;;;8196567;28;20420;-64
2023/07/26 02:19:42;;;;;;;8.87;6.93;;;13.30;99.90;;;;;;8196457;28;20225;-66
2023/07/26 02:23:43;;;;;;;9.13;6.97;;;13.30;99.90;;;;;;8197258;28;20237;-65
2023/07/26 02:27:45;;;;;;;10.07;7.00;;;13.30;99.90;;;;;;8213000;28;20249;-65
2023/07/26 02:31:46;;;;;;;7.87;6.70;;;13.30;99.90;;;;;;8202901;28;20270;-64
2023/07/26 02:35:47;;;;;;;9.27;7.27;;;13.20;99.90;;;;;;8198559;28;20225;-65
2023/07/26 02:39:49;;;;;;;10.90;7.23;;;13.20;99.90;;;;;;8197545;28;20269;-66
2023/07/26 02:43:50;;;;;;;9.60;6.93;;;13.20;99.90;;;;;;8198193;28;20203;-64
2023/07/26 02:47:51;;;;;;;10.80;7.23;;;13.30;99.90;;;;;;8205072;28;20270;-64
2023/07/26 02:51:52;;;;;;;11.70;7.23;;;13.20;99.90;;;;;;8208158;28;20192;-64
2023/07/26 02:55:53;;;;;;;9.33;7.47;;;13.20;99.90;;;;;;8206279;28;20203;-65
2023/07/26 02:59:54;;;;;;;9.27;6.90;;;13.20;99.90;;;;;;8206250;28;20195;-65
2023/07/26 03:03:55;;;;;;;9.00;6.20;;;13.20;99.90;;;;;;8202013;28;20302;-66
2023/07/26 03:08:08;;;;;;;8.40;7.00;;;13.20;99.90;;;;;;8215211;28;20220;-66
2023/07/26 03:12:12;;;;;;;8.63;6.57;;;13.20;99.90;;;;;;8177745;28;20183;-65
2023/07/26 03:16:17;;;;;;;7.90;6.93;;;13.20;99.90;;;;;;8205017;28;20196;-64
2023/07/26 03:20:18;;;;;;;7.07;6.17;;;13.20;99.90;;;;;;8203328;28;20286;-64
2023/07/26 03:24:19;;;;;;;9.30;6.87;;;13.20;99.90;;;;;;8202381;28;20214;-66
2023/07/26 03:28:20;;;;;;;8.30;6.27;;;13.20;99.90;;;;;;8202606;28;20228;-65
2023/07/26 03:32:27;;;;;;;11.27;6.90;;;13.20;99.90;;;;;;8221510;28;20218;-65
2023/07/26 03:36:28;;;;;;;11.57;7.03;;;13.20;99.90;;;;;;8198346;28;20266;-63
2023/07/26 03:40:32;;;;;;;8.60;7.00;;;13.20;99.90;;;;;;8202022;28;20188;-67
2023/07/26 03:44:33;;;;;;;8.73;6.57;;;13.20;99.90;;;;;;8219663;28;20216;-65
2023/07/26 03:48:34;;;;;;;9.63;6.83;;;13.20;99.90;;;;;;8202715;28;20187;-65
2023/07/26 03:52:35;;;;;;;12.00;7.70;;;13.20;99.90;;;;;;8201091;28;20226;-66
2023/07/26 03:56:36;;;;;;;8.57;6.37;;;13.20;99.90;;;;;;8205057;28;20193;-65
2023/07/26 04:00:38;;;;;;;7.47;6.70;;;13.20;99.90;;;;;;8202038;28;20201;-65
2023/07/26 04:04:38;;;;;;;7.63;6.23;;;13.20;99.90;;;;;;8204366;28;20212;-65
2023/07/26 04:08:40;;;;;;;9.17;6.40;;;13.20;99.90;;;;;;8195336;28;20203;-65
2023/07/26 04:12:41;;;;;;;11.33;6.07;;;13.20;99.90;;;;;;8201383;28;20199;-66
2023/07/26 04:16:42;;;;;;;7.57;6.33;;;13.20;99.90;;;;;;8193926;28;20211;-66
2023/07/26 04:20:49;;;;;;;8.30;6.20;;;13.20;99.90;;;;;;8192221;28;20267;-65
2023/07/26 04:24:50;;;;;;;6.53;5.60;;;13.20;99.90;;;;;;8196287;28;20216;-66
2023/07/26 04:28:51;;;;;;;9.40;6.20;;;13.30;99.90;;;;;;8201223;28;20188;-66
2023/07/26 04:32:52;;;;;;;7.63;6.07;;;13.40;99.90;;;;;;8204687;28;20215;-66
2023/07/26 04:36:54;;;;;;;10.43;5.90;;;13.50;99.90;;;;;;8198620;28;20244;-65
2023/07/26 04:40:55;;;;;;;8.13;6.17;;;13.60;99.90;;;;;;8199954;28;20188;-65
2023/07/26 04:44:56;;;;;;;7.43;5.67;;;13.60;99.90;;;;;;8202940;28;20208;-66
2023/07/26 04:49:00;;;;;;;9.17;5.53;;;13.60;99.90;;;;;;8202641;28;20191;-66
2023/07/26 04:53:01;;;;;;;8.90;5.13;;;13.60;99.90;;;;;;8200473;28;20180;-67
2023/07/26 04:57:02;;;;;;;7.80;5.33;;;13.60;99.90;;;;;;8218783;28;20259;-65
2023/07/26 05:01:03;;;;;;;7.47;5.27;;;13.60;99.90;;;;;;8202565;28;20198;-68
2023/07/26 05:05:07;;;;;;;7.10;5.30;;;13.60;99.90;;;;;;8197928;28;20215;-67
2023/07/26 05:09:08;;;;;;;6.80;5.50;;;13.60;99.90;;;;;;8182174;28;20235;-65
2023/07/26 05:13:10;;;;;;;8.73;5.23;;;13.60;99.90;;;;;;8199501;28;20324;-64
2023/07/26 05:17:15;;;;;;;6.87;5.30;;;13.60;99.90;;;;;;8200465;28;20295;-64
2023/07/26 05:21:16;;;;;;;9.97;5.97;;;13.60;99.90;;;;;;8197716;28;20294;-66
2023/07/26 05:25:18;;;;;;;7.13;5.33;;;13.60;99.90;;;;;;8197198;28;20227;-65
2023/07/26 05:29:19;;;;;;;6.73;5.63;;;13.60;99.90;;;;;;8194945;28;20196;-64
2023/07/26 05:33:21;;;;;;;6.80;5.13;;;13.60;99.90;;;;;;8213596;28;20203;-63
2023/07/26 05:37:22;;;;;;;8.83;5.40;;;13.60;99.90;;;;;;8202102;28;20189;-66
2023/07/26 05:41:26;;;;;;;8.43;5.63;;;13.60;99.90;;;;;;8211804;28;20199;-65
2023/07/26 05:45:27;;;;;;;7.63;4.80;;;13.60;99.90;;;;;;8193816;28;20224;-65
2023/07/26 05:49:28;;;;;;;5.63;4.53;;;13.60;99.90;;;;;;8194966;28;20196;-64
2023/07/26 05:53:29;;;;;;;8.60;4.97;;;13.60;99.90;;;;;;8196925;28;20188;-64
2023/07/26 05:57:31;;;;;;;6.27;4.80;;;13.60;99.90;;;;;;8196143;28;20188;-64
2023/07/26 06:01:35;;;;;;;6.77;5.50;;;13.60;99.90;;;;;;8213380;28;20223;-64
2023/07/26 06:05:36;;;;;;;5.80;4.53;;;13.60;99.90;;;;;;8195999;28;20227;-64
2023/07/26 06:09:37;;;;;;;5.33;4.60;;;13.70;99.90;;;;;;8212753;28;20323;-63
2023/07/26 06:13:38;;;;;;;6.13;4.90;;;13.80;99.90;;;;;;8196934;28;20346;-64
2023/07/26 06:17:39;;;;;;;9.30;4.70;;;13.90;99.90;;;;;;8199198;28;20286;-63
2023/07/26 06:21:44;;;;;;;8.00;4.23;;;14.00;99.90;;;;;;8208797;28;20196;-64
2023/07/26 06:25:45;;;;;;;8.80;4.03;;;14.00;99.90;;;;;;8206200;28;20204;-63
2023/07/26 06:29:46;;;;;;;5.50;3.60;;;14.20;99.90;;;;;;8220552;28;20231;-63
2023/07/26 06:33:47;;;;;;;5.13;3.83;;;14.20;99.90;;;;;;8203984;28;20192;-63
2023/07/26 06:37:52;;;;;;;5.23;3.37;;;14.40;99.90;;;;;;8209366;28;20193;-63
2023/07/26 06:41:53;;;;;;;7.17;3.60;;;14.40;99.90;;;;;;8203784;28;20312;-64
2023/07/26 06:45:54;;;;;;;4.73;3.13;;;14.50;99.90;;;;;;8205083;28;20215;-63
2023/07/26 06:49:55;;;;;;;7.53;2.93;;;14.60;99.90;;;;;;8209117;28;20181;-63
2023/07/26 06:53:56;;;;;;;5.33;3.33;;;14.80;99.90;;;;;;8212121;28;20181;-62
2023/07/26 06:57:57;;;;;;;10.37;2.90;;;15.00;99.90;;;;;;8200793;28;20189;-63
2023/07/26 07:01:58;;;;;;;9.80;2.80;;;15.10;99.90;;;;;;8229706;28;20189;-63
2023/07/26 07:06:08;;;;;;;6.90;2.60;;;15.20;99.90;;;;;;8194076;28;20212;-62
2023/07/26 07:10:10;;;;;;;7.53;2.47;;;15.40;99.90;;;;;;8204684;28;20211;-64
2023/07/26 07:14:11;;;;;;;4.50;2.37;;;15.60;99.90;;;;;;8199538;28;20224;-64
2023/07/26 07:18:12;;;;;;;7.80;2.30;;;16.00;99.90;;;;;;8203813;28;20184;-64
2023/07/26 07:22:13;;;;;;;2.73;1.63;;;16.20;99.90;;;;;;8206992;28;20189;-68
2023/07/26 07:26:14;;;;;;;6.97;2.13;;;16.30;99.90;;;;;;8212653;28;20244;-64
2023/07/26 07:30:15;;;;;;;4.63;2.03;;;16.50;99.90;;;;;;8206507;28;20187;-65
2023/07/26 07:34:16;;;;;;;3.23;1.90;;;16.60;92.90;;;;;;8202295;28;20196;-64
2023/07/26 07:38:28;;;;;;;4.17;1.90;;;16.50;1.00;;;;;;8193240;28;20193;-62
2023/07/26 07:42:31;;;;;;;6.23;2.33;;;16.60;53.60;;;;;;8204112;28;20193;-64
2023/07/26 07:46:32;;;;;;;4.00;1.43;;;16.60;88.00;;;;;;8215327;28;20247;-66
2023/07/26 07:50:33;;;;;;;4.70;1.70;;;16.50;1.00;;;;;;8223531;28;20192;-67
2023/07/26 07:54:37;;;;;;;2.17;1.17;;;15.90;44.90;;;;;;8204349;28;20193;-65
2023/07/26 07:58:38;;;;;;;4.40;1.63;;;15.80;22.40;;;;;;8204002;28;20201;-65
2023/07/26 08:02:39;;;;;;;2.33;1.40;;;16.10;43.70;;;;;;8198774;28;20212;-65
2023/07/26 08:06:40;;;;;;;8.87;2.00;;;16.50;1.00;;;;;;8201413;28;20224;-65
2023/07/26 08:10:41;;;;;;;4.87;1.40;;;16.50;1.00;;;;;;8186035;28;20197;-66
2023/07/26 08:14:50;;;;;;;3.43;1.27;;;16.70;1.00;;;;;;8213168;28;20188;-65
2023/07/26 08:18:54;;;;;;;2.23;1.10;;;17.00;1.00;;;;;;8191346;28;20320;-64
2023/07/26 08:22:55;;;;;;;3.37;1.13;;;16.80;1.00;;;;;;8199130;28;20312;-65
2023/07/26 08:26:57;;;;;;;5.77;1.40;;;16.80;1.00;;;;;;8200780;28;20216;-66
2023/07/26 08:31:02;;;;;;;7.17;1.87;;;16.80;1.00;;;;;;8199866;28;20250;-63
2023/07/26 08:35:03;;;;;;;4.27;1.33;;;16.80;1.00;;;;;;8202692;28;20279;-64
2023/07/26 08:39:05;;;;;;;5.77;1.57;;;17.30;1.00;;;;;;8202222;28;20203;-66
2023/07/26 08:43:07;;;;;;;2.03;0.97;;;17.30;1.00;;;;;;8213341;28;20193;-66
2023/07/26 08:47:18;;;;;;;3.03;1.37;;;17.80;1.00;;;;;;8210992;28;20266;-66
2023/07/26 08:51:21;;;;;;;2.90;1.30;;;17.90;1.00;;;;;;8208718;28;20192;-65
2023/07/26 08:55:22;;;;;;;2.27;1.20;;;17.50;1.00;;;;;;8194182;28;20255;-65
2023/07/26 08:59:24;;;;;;;4.27;1.17;;;17.20;1.00;;;;;;8198387;28;20189;-64
2023/07/26 09:03:25;;;;;;;5.97;1.23;;;17.10;1.00;;;;;;8212919;28;20251;-65
2023/07/26 09:07:26;;;;;;;3.23;1.20;;;17.10;1.00;;;;;;8203552;28;20203;-64
2023/07/26 09:11:27;;;;;;;2.03;1.20;;;17.30;1.00;;;;;;8206104;28;20223;-62
2023/07/26 09:15:36;;;;;;;3.50;0.90;;;17.40;1.00;;;;;;8203317;28;20189;-65
2023/07/26 09:19:44;;;;;;;5.40;1.27;;;17.50;1.00;;;;;;8206578;28;20307;-62
2023/07/26 09:23:45;;;;;;;3.40;1.20;;;17.30;1.00;;;;;;8202819;28;20180;-62
2023/07/26 09:27:53;;;;;;;4.50;1.13;;;17.40;1.00;;;;;;8216747;28;20337;-64
2023/07/26 09:31:54;;;;;;;4.07;1.73;;;18.10;1.00;;;;;;8216592;28;20271;-65
2023/07/26 09:35:55;;;;;;;3.93;1.30;;;18.40;1.00;;;;;;8195460;28;20191;-64
2023/07/26 09:39:56;;;;;;;3.03;1.13;;;17.90;1.00;;;;;;8202481;28;20192;-62
2023/07/26 09:44:00;;;;;;;2.20;1.30;;;18.10;1.00;;;;;;8215353;28;20188;-62
2023/07/26 09:48:11;;;;;;;2.63;1.20;;;18.80;1.00;;;;;;8217950;28;20193;-63
2023/07/26 09:52:40;;;;;;;2.43;1.10;;;19.40;1.00;;;;;;8196275;28;20248;-63
2023/07/26 09:56:42;;;;;;;2.13;1.10;;;18.70;1.00;;;;;;8216240;28;20203;-61
2023/07/26 10:00:48;;;;;;;5.53;1.37;;;18.30;1.00;;;;;;8196309;28;20200;-64
2023/07/26 10:04:58;;;;;;;2.90;1.30;;;18.10;1.00;;;;;;8197752;28;20213;-64
2023/07/26 10:09:01;;;;;;;4.57;1.30;;;17.50;1.00;;;;;;8196318;28;20293;-63
2023/07/26 10:13:05;;;;;;;2.77;1.10;;;17.40;1.00;;;;;;8212965;28;20184;-63
2023/07/26 10:17:07;;;;;;;3.17;1.03;;;17.40;1.00;;;;;;8196787;28;20195;-63
2023/07/26 10:21:12;;;;;;;3.50;1.17;;;17.40;1.00;;;;;;8197613;28;20188;-63
2023/07/26 10:25:17;;;;;;;3.07;1.20;;;18.00;1.00;;;;;;8207760;28;20244;-63
2023/07/26 10:29:22;;;;;;;2.77;1.00;;;18.60;1.00;;;;;;8217511;28;20189;-63
2023/07/26 10:33:23;;;;;;;3.37;0.97;;;18.90;1.00;;;;;;8206765;28;20243;-64
2023/07/26 10:37:34;;;;;;;2.70;0.90;;;18.40;1.00;;;;;;8195868;28;20197;-63
2023/07/26 10:41:55;;;;;;;3.37;1.00;;;18.50;1.00;;;;;;8202938;28;20300;-65
2023/07/26 10:45:56;;;;;;;3.20;1.20;;;18.40;99.90;;;;;;8201991;28;20370;-65
2023/07/26 10:50:06;;;;;;;3.23;1.07;;;18.70;1.00;;;;;;8206083;28;20243;-63
2023/07/26 10:54:08;;;;;;;2.57;1.00;;;18.50;99.90;;;;;;8206382;28;20207;-63
2023/07/26 10:58:18;;;;;;;2.17;0.60;;;18.20;99.90;;;;;;8208977;28;20180;-64
2023/07/26 11:02:44;;;;;;;2.33;1.20;;;18.80;99.90;;;;;;8208659;28;20205;-63
2023/07/26 11:06:54;;;;;;;2.43;1.07;;;19.30;99.90;;;;;;8210985;28;20216;-62
2023/07/26 11:10:55;;;;;;;2.67;0.93;;;19.80;99.90;;;;;;8224092;28;20208;-65
2023/07/26 11:14:56;;;;;;;2.33;1.07;;;19.70;99.90;;;;;;8210849;28;20199;-64
2023/07/26 11:19:08;;;;;;;3.07;1.10;;;19.40;99.90;;;;;;8206626;28;20215;-64
2023/07/26 11:23:21;;;;;;;1.97;0.90;;;19.00;99.90;;;;;;8171383;28;20221;-64
2023/07/26 11:27:22;;;;;;;2.73;0.97;;;18.50;99.90;;;;;;8174469;28;20230;-67
2023/07/26 11:31:23;;;;;;;1.83;1.10;;;18.30;99.90;;;;;;8161572;28;20370;-64
2023/07/26 11:35:24;;;;;;;2.70;1.00;;;18.60;99.90;;;;;;8174880;28;20193;-63
2023/07/26 11:39:26;;;;;;;4.27;1.07;;;18.80;99.90;;;;;;8179619;28;20231;-62
2023/07/26 11:43:31;;;;;;;1.30;0.60;;;18.80;99.90;;;;;;8175139;28;20218;-64
2023/07/26 11:47:38;;;;;;;2.13;1.10;;;19.00;99.90;;;;;;8154904;28;20234;-63
2023/07/26 11:51:39;;;;;;;3.40;0.90;;;19.20;99.90;;;;;;8165917;28;20193;-63
2023/07/26 11:55:42;;;;;;;2.57;0.90;;;19.70;99.90;;;;;;8155252;28;20208;-63
2023/07/26 11:59:48;;;;;;;2.03;1.00;;;20.10;99.90;;;;;;8171044;28;20203;-65
2023/07/26 12:03:50;;;;;;;2.03;1.00;;;21.00;99.90;;;;;;8208358;28;20240;-64
2023/07/26 12:07:54;;;;;;;3.47;1.13;;;21.00;99.90;;;;;;8209672;28;20294;-64
2023/07/26 12:11:57;;;;;;;2.63;1.20;;;20.50;99.90;;;;;;8207095;28;20189;-63
2023/07/26 12:16:01;;;;;;;1.80;1.10;;;20.30;99.90;;;;;;8220181;28;20212;-67
2023/07/26 12:20:05;;;;;;;2.77;1.00;;;19.80;99.90;;;;;;8203989;28;20271;-67
2023/07/26 12:24:06;;;;;;;1.70;0.80;;;19.40;99.90;;;;;;8225046;28;20232;-67
2023/07/26 12:28:08;;;;;;;2.53;1.13;;;19.10;99.90;;;;;;8208654;28;20222;-68
2023/07/26 12:32:14;;;;;;;1.50;0.90;;;19.30;99.90;;;;;;8226220;28;20192;-67
2023/07/26 12:36:15;;;;;;;2.33;1.10;;;19.70;99.90;;;;;;8210704;28;20231;-65
2023/07/26 12:40:20;;;;;;;1.63;0.90;;;19.70;99.90;;;;;;8204892;28;20188;-65
2023/07/26 12:44:21;;;;;;;1.43;1.10;;;19.20;99.90;;;;;;8208161;28;20189;-68
2023/07/26 12:48:23;;;;;;;2.43;1.20;;;19.10;99.90;;;;;;8226323;28;20189;-63
2023/07/26 12:52:27;;;;;;;3.77;1.23;;;19.10;99.90;;;;;;8205443;28;20188;-66
2023/07/26 12:56:28;;;;;;;2.40;1.07;;;19.40;99.90;;;;;;8208035;28;20219;-67
2023/07/26 13:00:30;;;;;;;2.60;1.00;;;19.60;99.90;;;;;;8204318;28;20244;-64
2023/07/26 13:04:31;;;;;;;2.60;1.23;;;19.50;99.90;;;;;;8213991;28;20300;-64
2023/07/26 13:08:33;;;;;;;2.40;1.00;;;19.10;99.90;;;;;;8210645;28;20199;-67
2023/07/26 13:12:34;;;;;;;1.93;1.00;;;19.20;99.90;;;;;;8213063;28;20185;-65
2023/07/26 13:16:35;;;;;;;2.90;1.17;;;19.20;99.90;;;;;;8209241;28;20200;-67
2023/07/26 13:20:36;;;;;;;1.00;0.90;;;19.50;99.90;;;;;;8210316;28;20185;-65
2023/07/26 13:24:40;;;;;;;2.33;1.17;;;19.60;99.90;;;;;;8209095;28;20243;-66
2023/07/26 13:28:41;;;;;;;2.57;1.10;;;20.20;99.90;;;;;;8209852;28;20189;-68
2023/07/26 13:32:42;;;;;;;1.53;0.77;;;20.30;99.90;;;;;;8204403;28;20227;-65
2023/07/26 13:36:44;;;;;;;3.87;1.00;;;20.60;99.90;;;;;;8209380;28;20216;-65
2023/07/26 13:40:45;;;;;;;4.73;1.00;;;21.00;99.90;;;;;;8208009;28;20194;-68
2023/07/26 13:44:46;;;;;;;1.97;1.00;;;21.10;99.90;;;;;;8214187;28;20212;-66
2023/07/26 13:48:47;;;;;;;2.57;1.30;;;21.20;99.90;;;;;;8203823;28;20181;-66
2023/07/26 13:52:50;;;;;;;3.60;1.00;;;20.90;99.90;;;;;;8201154;28;20177;-68
2023/07/26 13:56:51;;;;;;;1.90;1.00;;;20.50;99.90;;;;;;8205537;28;20189;-65
2023/07/26 14:00:51;;;;;;;3.07;0.90;;;19.90;99.90;;;;;;8200056;28;20267;-64
2023/07/26 14:05:00;;;;;;;2.17;0.90;;;19.90;99.90;;;;;;8198700;28;20213;-66
2023/07/26 14:09:01;;;;;;;1.33;0.80;;;20.50;99.90;;;;;;8206262;28;20239;-66
2023/07/26 14:13:02;;;;;;;1.70;0.93;;;21.00;99.90;;;;;;8200869;28;20300;-66
2023/07/26 14:17:03;;;;;;;1.63;0.93;;;21.20;99.90;;;;;;8196566;28;20189;-66
2023/07/26 14:21:04;;;;;;;2.83;1.20;;;21.40;99.90;;;;;;8198236;28;20180;-65
2023/07/26 14:25:06;;;;;;;1.80;1.03;;;21.30;99.90;;;;;;8214850;28;20216;-66
2023/07/26 14:29:07;;;;;;;1.97;1.10;;;21.10;99.90;;;;;;8200017;28;20258;-66
2023/07/26 14:33:09;;;;;;;1.50;1.03;;;21.10;99.90;;;;;;8196529;28;20217;-66
2023/07/26 14:37:10;;;;;;;1.87;1.07;;;21.20;99.90;;;;;;8197789;28;20189;-64
2023/07/26 14:41:11;;;;;;;1.40;1.00;;;20.90;99.90;;;;;;8205758;28;20203;-66
2023/07/26 14:45:12;;;;;;;2.53;1.20;;;20.40;99.90;;;;;;8199670;28;20219;-66
2023/07/26 14:49:13;;;;;;;1.50;1.13;;;19.80;99.90;;;;;;8203002;28;20181;-65
2023/07/26 14:53:13;;;;;;;4.00;1.13;;;19.10;99.90;;;;;;8203800;28;20406;-64
2023/07/26 14:57:20;;;;;;;3.10;1.50;;;18.70;99.90;;;;;;8203116;28;20196;-64
2023/07/26 15:01:21;;;;;;;2.80;1.20;;;18.60;99.90;;;;;;8209502;28;20197;-65
2023/07/26 15:05:23;;;;;;;1.37;0.90;;;18.70;99.90;;;;;;8223322;28;20255;-66
2023/07/26 15:09:23;;;;;;;1.50;1.10;;;19.20;99.90;;;;;;8209139;28;20343;-64
2023/07/26 15:13:28;;;;;;;1.50;0.80;;;19.80;99.90;;;;;;8203740;28;20195;-67
2023/07/26 15:17:29;;;;;;;4.17;0.90;;;20.00;99.90;;;;;;8219027;28;20193;-66
2023/07/26 15:21:30;;;;;;;1.57;0.80;;;20.10;99.90;;;;;;8213237;28;20195;-64
2023/07/26 15:25:32;;;;;;;2.00;0.83;;;20.30;99.90;;;;;;8200278;28;20212;-64
2023/07/26 15:29:36;;;;;;;1.50;1.07;;;20.40;99.90;;;;;;8204626;28;20197;-64
2023/07/26 15:33:37;;;;;;;2.27;1.23;;;20.70;99.90;;;;;;8202495;28;20184;-65
2023/07/26 15:37:46;;;;;;;2.00;1.13;;;21.00;99.90;;;;;;8208003;28;20218;-64
2023/07/26 15:41:47;;;;;;;2.40;1.20;;;20.90;99.90;;;;;;8206344;28;20185;-64
2023/07/26 15:45:48;;;;;;;3.43;1.37;;;20.60;99.90;;;;;;8205775;28;20212;-65
2023/07/26 15:49:53;;;;;;;2.47;1.30;;;19.90;99.90;;;;;;8205616;28;20185;-67
2023/07/26 15:53:55;;;;;;;3.37;1.10;;;19.20;99.90;;;;;;8191624;28;20196;-64
2023/07/26 15:57:56;;;;;;;1.50;1.10;;;19.00;99.90;;;;;;8205488;28;20220;-64
2023/07/26 16:01:57;;;;;;;1.70;1.10;;;18.70;99.90;;;;;;8200620;28;20189;-64
2023/07/26 16:06:10;;;;;;;1.53;1.30;;;18.40;99.90;;;;;;8217754;28;20217;-63
2023/07/26 16:10:12;;;;;;;3.67;1.60;;;18.10;99.90;;;;;;8204386;28;20202;-65
2023/07/26 16:14:12;;;;;;;1.63;1.20;;;18.00;99.90;;;;;;8211711;28;20216;-65
2023/07/26 16:18:13;;;;;;;1.53;1.20;;;18.00;99.90;;;;;;8202006;28;20196;-64
2023/07/26 16:22:14;;;;;;;1.10;0.93;;;17.90;99.90;;;;;;8210793;28;20189;-65
2023/07/26 16:26:15;;;;;;;2.73;0.97;;;18.00;99.90;;;;;;8210188;28;20322;-64
2023/07/26 16:30:17;;;;;;;1.50;1.07;;;18.10;99.90;;;;;;8200849;28;20189;-64
2023/07/26 16:34:17;;;;;;;1.33;1.00;;;18.20;99.90;;;;;;8201279;28;20293;-65
2023/07/26 16:38:18;;;;;;;1.27;1.10;;;18.40;99.90;;;;;;8194939;28;20274;-64
2023/07/26 16:42:19;;;;;;;1.30;0.90;;;18.70;99.90;;;;;;8202718;28;20188;-66
2023/07/26 16:46:23;;;;;;;2.67;1.10;;;18.90;99.90;;;;;;8197644;28;20239;-66
2023/07/26 16:50:24;;;;;;;1.43;0.90;;;18.90;99.90;;;;;;8214194;28;20192;-65
2023/07/26 16:54:28;;;;;;;1.23;1.03;;;18.80;99.90;;;;;;8208384;28;20193;-64
2023/07/26 16:58:30;;;;;;;2.10;0.97;;;18.80;99.90;;;;;;8196367;28;20192;-64
2023/07/26 17:02:31;;;;;;;1.67;1.00;;;18.70;99.90;;;;;;8211702;28;20299;-64
2023/07/26 17:06:32;;;;;;;1.53;1.10;;;18.60;99.90;;;;;;8191726;28;20236;-64
2023/07/26 17:10:33;;;;;;;1.87;1.20;;;18.60;99.90;;;;;;8197097;28;20193;-65
2023/07/26 17:14:34;;;;;;;1.33;1.07;;;18.80;99.90;;;;;;8209497;28;20184;-63
2023/07/26 17:18:35;;;;;;;3.47;1.30;;;19.00;99.90;;;;;;8195086;28;20267;-64
2023/07/26 17:22:36;;;;;;;2.40;1.50;;;19.20;99.90;;;;;;8202473;28;20234;-65
2023/07/26 17:26:37;;;;;;;1.87;1.10;;;19.20;99.90;;;;;;8202042;28;20223;-65
2023/07/26 17:30:38;;;;;;;6.73;1.57;;;19.10;99.90;;;;;;8196934;28;20188;-64
2023/07/26 17:34:38;;;;;;;2.23;1.00;;;19.40;99.90;;;;;;8212968;28;20192;-62
2023/07/26 17:38:39;;;;;;;2.73;1.50;;;19.10;99.90;;;;;;8216365;28;20192;-62
2023/07/26 17:42:40;;;;;;;4.33;1.07;;;18.70;99.90;;;;;;8196320;28;20208;-62
2023/07/26 17:46:44;;;;;;;3.90;1.33;;;18.30;99.90;;;;;;8203178;28;20219;-63
2023/07/26 17:50:46;;;;;;;1.80;1.07;;;18.10;99.90;;;;;;8199141;28;20227;-62
2023/07/26 17:54:46;;;;;;;2.20;1.07;;;18.20;99.90;;;;;;8199267;28;20196;-62
2023/07/26 17:58:48;;;;;;;1.60;1.00;;;18.40;99.90;;;;;;8214608;28;20188;-63
2023/07/26 18:02:49;;;;;;;2.10;1.07;;;18.30;99.90;;;;;;8195228;28;20212;-63
2023/07/26 18:06:50;;;;;;;2.20;0.97;;;18.00;99.90;;;;;;8196830;28;20234;-62
2023/07/26 18:10:56;;;;;;;2.00;1.00;;;17.90;99.90;;;;;;8216617;28;20199;-62
2023/07/26 18:14:57;;;;;;;1.40;0.90;;;17.60;99.90;;;;;;8199999;28;20220;-63
2023/07/26 18:18:58;;;;;;;2.23;0.90;;;18.00;99.90;;;;;;8199893;28;20199;-62
2023/07/26 18:23:02;;;;;;;1.53;0.97;;;18.80;99.90;;;;;;8211742;28;20189;-63
2023/07/26 18:27:04;;;;;;;1.87;0.97;;;19.20;99.90;;;;;;8206099;28;20326;-63
2023/07/26 18:31:07;;;;;;;2.03;0.90;;;19.10;99.90;;;;;;8201383;28;20279;-62
2023/07/26 18:35:08;;;;;;;2.73;0.97;;;18.60;99.90;;;;;;8210328;28;20196;-62
2023/07/26 18:39:09;;;;;;;1.30;0.80;;;18.50;99.90;;;;;;8206215;28;20208;-63
2023/07/26 18:43:10;;;;;;;3.03;1.17;;;18.30;99.90;;;;;;8201876;28;20226;-63
2023/07/26 18:47:11;;;;;;;2.60;1.07;;;17.80;99.90;;;;;;8206024;28;20216;-63
2023/07/26 18:51:13;;;;;;;2.43;1.40;;;17.10;99.90;;;;;;8202195;28;20177;-63
2023/07/26 18:55:16;;;;;;;1.63;1.00;;;16.50;99.90;;;;;;8193305;28;20288;-63
2023/07/26 18:59:17;;;;;;;3.67;1.00;;;16.10;99.90;;;;;;8200781;28;20235;-63
2023/07/26 19:03:18;;;;;;;2.17;1.10;;;15.70;1.00;;;;;;8206697;28;20234;-63
2023/07/26 19:07:19;;;;;;;2.53;1.20;;;15.50;1.00;;;;;;8202161;28;20216;-64
2023/07/26 19:11:23;;;;;;;2.63;1.00;;;15.30;1.00;;;;;;8207943;28;20220;-62
2023/07/26 19:15:24;;;;;;;1.43;1.07;;;15.10;1.00;;;;;;8220867;28;20197;-63
2023/07/26 19:19:25;;;;;;;2.27;0.93;;;14.90;1.00;;;;;;8203352;28;20216;-63
2023/07/26 19:23:26;;;;;;;3.50;0.80;;;14.70;1.00;;;;;;8208378;28;20194;-63
2023/07/26 19:27:27;;;;;;;1.30;0.90;;;14.50;1.00;;;;;;8209848;28;20300;-64
2023/07/26 19:31:32;;;;;;;1.27;0.87;;;14.40;1.00;;;;;;8209546;28;20221;-63
2023/07/26 19:35:33;;;;;;;3.30;1.07;;;14.20;1.00;;;;;;8212655;28;20255;-63
2023/07/26 19:39:34;;;;;;;1.57;1.23;;;14.10;1.00;;;;;;8229593;28;20200;-63
2023/07/26 19:43:37;;;;;;;1.33;1.23;;;14.00;1.00;;;;;;8212092;28;20219;-63
2023/07/26 19:47:38;;;;;;;3.43;1.30;;;13.90;1.00;;;;;;8209666;28;20222;-63
2023/07/26 19:51:39;;;;;;;1.70;1.20;;;13.80;1.00;;;;;;8206520;28;20189;-63
2023/07/26 19:55:40;;;;;;;2.07;1.30;;;13.60;1.00;;;;;;8202872;28;20216;-63
2023/07/26 19:59:41;;;;;;;2.20;0.97;;;13.50;1.00;;;;;;8202967;28;20196;-62
2023/07/26 20:03:42;;;;;;;1.40;1.07;;;13.40;1.00;;;;;;8206710;28;20213;-63
2023/07/26 20:07:43;;;;;;;3.40;1.37;;;13.30;1.00;;;;;;8207222;28;20216;-63
2023/07/26 20:11:47;;;;;;;1.20;1.10;;;13.20;1.00;;;;;;8206832;28;20199;-62
2023/07/26 20:15:48;;;;;;;1.50;1.03;;;13.10;1.00;;;;;;8206489;28;20197;-61
2023/07/26 20:19:49;;;;;;;2.13;1.20;;;13.00;1.00;;;;;;8226027;28;20219;-62
2023/07/26 20:23:50;;;;;;;1.50;1.10;;;12.80;1.00;;;;;;8209032;28;20196;-63
2023/07/26 20:27:51;;;;;;;1.80;1.30;;;12.70;1.00;;;;;;8224422;28;20216;-63
2023/07/26 20:31:53;;;;;;;1.40;1.20;;;12.60;1.00;;;;;;8224199;28;20192;-62
2023/07/26 20:35:55;;;;;;;2.53;1.37;;;12.40;1.00;;;;;;8205998;28;20193;-63
2023/07/26 20:39:57;;;;;;;1.47;1.17;;;12.30;14.20;;;;;;8211325;28;20193;-63
2023/07/26 20:43:58;;;;;;;1.70;1.00;;;12.20;29.20;;;;;;8221457;28;20208;-63
2023/07/26 20:47:59;;;;;;;2.10;1.07;;;12.10;31.70;;;;;;8203890;28;20354;-62
2023/07/26 20:52:00;;;;;;;2.00;1.20;;;12.00;46.00;;;;;;8212754;28;20242;-63
2023/07/26 20:56:02;;;;;;;1.73;1.27;;;11.90;47.30;;;;;;8206693;28;20212;-63
2023/07/26 21:00:05;;;;;;;2.70;1.40;;;11.90;65.60;;;;;;8209387;28;20202;-63
2023/07/26 21:04:05;;;;;;;2.83;1.20;;;11.80;67.30;;;;;;8205449;28;20215;-62